createdAt,value
2023-01-04T04:37:15.572Z,5.32
2023-01-04T04:47:30.680Z,5.05
2023-01-04T04:57:46.156Z,5.90
2023-01-04T05:08:01.595Z,6.40
2023-01-04T05:18:19.352Z,6.50
2023-01-04T05:28:34.391Z,9.70
2023-01-04T05:38:49.798Z,10.88
2023-01-04T05:49:05.199Z,12.32
2023-01-04T05:59:20.554Z,13.85
2023-01-04T06:09:35.852Z,13.80
2023-01-04T06:19:51.239Z,11.90
2023-01-04T06:30:07.380Z,11.70
2023-01-04T06:40:22.783Z,11.57
2023-01-04T06:50:38.001Z,12.05
2023-01-04T07:00:54.372Z,11.93
2023-01-04T07:11:09.874Z,11.40
2023-01-04T07:21:26.789Z,10.35
2023-01-04T07:31:47.376Z,9.55
2023-01-04T07:42:02.532Z,8.90
2023-01-04T07:52:18.292Z,7.95
2023-01-04T08:02:33.694Z,7.45
2023-01-04T08:12:49.106Z,6.30
2023-01-04T08:23:04.317Z,6.40
2023-01-04T08:33:19.807Z,6.22
2023-01-04T08:43:35.915Z,5.18
2023-01-04T08:53:51.150Z,4.60
2023-01-04T09:04:07.544Z,4.63
2023-01-04T09:14:22.605Z,3.88
2023-01-04T09:24:38.128Z,4.68
2023-01-04T09:34:53.617Z,3.25
2023-01-04T09:45:24.232Z,2.67
2023-01-04T09:55:50.364Z,2.17
2023-01-04T10:06:09.148Z,1.63
2023-01-04T10:17:10.886Z,1.77
2023-01-04T10:27:26.227Z,2.10
2023-01-04T10:37:42.759Z,2.15
2023-01-04T10:48:20.575Z,1.60
2023-01-04T10:58:47.180Z,1.40
2023-01-04T11:09:21.091Z,1.15
2023-01-04T11:19:41.233Z,1.52
2023-01-04T11:30:20.086Z,1.48
2023-01-04T11:40:35.860Z,1.10
2023-01-04T11:50:55.781Z,1.20
2023-01-04T12:01:23.357Z,2.05
2023-01-04T12:11:42.467Z,1.33
2023-01-04T12:22:00.377Z,1.70
2023-01-04T12:32:17.288Z,1.63
2023-01-04T12:42:32.373Z,1.42
2023-01-04T13:03:26.529Z,1.80
2023-01-04T13:13:55.521Z,1.75
2023-01-04T13:24:21.422Z,1.58
2023-01-04T13:34:59.600Z,1.40
2023-01-04T13:45:43.761Z,1.97
2023-01-04T13:56:03.221Z,2.03
2023-01-04T14:06:26.217Z,2.00
2023-01-04T14:16:41.270Z,2.53
2023-01-04T14:26:56.596Z,1.80
2023-01-04T14:37:12.284Z,1.35
2023-01-04T14:47:27.302Z,1.95
2023-01-04T14:57:44.810Z,1.20
2023-01-04T15:08:01.405Z,2.03
2023-01-04T15:18:17.745Z,1.80
2023-01-04T15:28:33.012Z,4.60
2023-01-04T15:38:48.330Z,1.92
2023-01-04T15:49:03.794Z,1.98
2023-01-04T15:59:19.349Z,1.95
2023-01-04T16:09:36.401Z,1.50
2023-01-04T16:19:51.725Z,1.73
2023-01-04T16:30:11.843Z,1.83
2023-01-04T16:40:27.349Z,1.50
2023-01-04T16:50:42.533Z,4.10
2023-01-04T17:01:07.064Z,8.63
2023-01-04T17:12:18.616Z,1.98
2023-01-04T17:22:00.224Z,2.45
2023-01-04T17:32:15.449Z,1.23
2023-01-04T17:42:32.991Z,2.72
2023-01-04T17:52:50.691Z,5.07
2023-01-04T18:03:06.240Z,1.43
2023-01-04T18:13:21.531Z,1.45
2023-01-04T18:23:37.135Z,7.15
2023-01-04T18:33:56.893Z,2.53
2023-01-04T18:54:48.385Z,1.27
2023-01-04T19:05:03.921Z,0.90
2023-01-04T19:15:19.340Z,2.17
2023-01-04T19:25:36.103Z,3.45
2023-01-04T19:35:51.288Z,5.07
2023-01-04T19:46:11.717Z,6.15
2023-01-04T19:56:27.631Z,4.20
2023-01-04T20:06:42.688Z,2.22
2023-01-04T20:16:58.079Z,1.63
2023-01-04T20:27:13.302Z,2.28
2023-01-04T20:37:28.800Z,5.45
2023-01-04T20:47:44.206Z,3.05
2023-01-04T20:57:59.587Z,3.42
2023-01-04T21:08:15.112Z,4.13
2023-01-04T21:18:30.445Z,10.05
2023-01-04T21:28:46.670Z,1.40
2023-01-04T21:39:01.803Z,1.50
2023-01-04T21:49:17.027Z,1.10
2023-01-04T21:59:32.598Z,1.13
2023-01-04T22:09:51.148Z,1.80
2023-01-04T22:20:11.529Z,2.13
